createdAt,value
2023-05-06T00:02:11.750Z,98.30
2023-05-06T00:04:38.533Z,98.30
2023-05-06T00:07:05.810Z,98.30
2023-05-06T00:09:32.514Z,98.30
2023-05-06T00:11:59.154Z,98.30
2023-05-06T00:14:25.816Z,98.30
2023-05-06T00:16:52.448Z,98.30
2023-05-06T00:19:19.159Z,98.30
2023-05-06T00:21:45.923Z,98.30
2023-05-06T00:24:12.601Z,98.30
2023-05-06T00:26:39.248Z,98.30
2023-05-06T00:29:05.920Z,98.30
2023-05-06T00:31:32.606Z,98.30
2023-05-06T00:33:59.253Z,98.30
2023-05-06T00:36:26.048Z,98.30
2023-05-06T00:38:52.706Z,98.30
2023-05-06T00:41:19.337Z,98.30
2023-05-06T00:43:46.097Z,98.30
2023-05-06T00:46:16.094Z,98.30
2023-05-06T00:48:44.202Z,98.30
2023-05-06T00:51:12.111Z,98.30
2023-05-06T00:53:39.743Z,98.30
2023-05-06T00:56:07.246Z,98.30
2023-05-06T00:58:34.914Z,98.30
2023-05-06T01:01:02.136Z,98.30
2023-05-06T01:03:29.190Z,98.30
2023-05-06T01:06:05.265Z,98.30
2023-05-06T01:08:51.351Z,98.30
2023-05-06T01:11:37.613Z,98.30
2023-05-06T01:14:14.886Z,98.30
2023-05-06T01:16:42.189Z,98.30
2023-05-06T01:19:20.768Z,98.30
2023-05-06T01:21:51.124Z,98.30
2023-05-06T01:24:17.830Z,98.30
2023-05-06T01:26:44.529Z,98.30
2023-05-06T01:29:12.485Z,98.30
2023-05-06T01:31:47.982Z,98.30
2023-05-06T01:34:25.324Z,98.30
2023-05-06T01:37:06.912Z,98.30
2023-05-06T01:39:34.423Z,98.30
2023-05-06T01:42:03.623Z,98.30
2023-05-06T01:44:33.763Z,98.30
2023-05-06T01:47:02.304Z,98.30
2023-05-06T01:49:30.230Z,98.30
2023-05-06T01:51:57.807Z,98.30
2023-05-06T01:54:24.534Z,98.30
2023-05-06T01:56:51.291Z,98.30
2023-05-06T01:59:17.961Z,98.30
2023-05-06T02:01:44.926Z,98.30
2023-05-06T02:04:11.825Z,98.30
2023-05-06T02:06:39.027Z,98.30
2023-05-06T02:09:06.218Z,98.30
2023-05-06T02:11:37.795Z,98.30
2023-05-06T02:14:06.691Z,98.30
2023-05-06T02:16:35.112Z,98.30
2023-05-06T02:19:01.947Z,98.30
2023-05-06T02:21:28.658Z,98.30
2023-05-06T02:23:55.320Z,98.30
2023-05-06T02:26:21.982Z,98.30
2023-05-06T02:28:48.762Z,98.30
2023-05-06T02:31:16.059Z,98.30
2023-05-06T02:33:43.194Z,98.30
2023-05-06T02:36:11.211Z,98.30
2023-05-06T02:38:37.829Z,98.30
2023-05-06T02:41:04.479Z,98.30
2023-05-06T02:43:31.197Z,98.30
2023-05-06T02:45:58.441Z,98.30
2023-05-06T02:48:25.763Z,98.30
2023-05-06T02:50:52.657Z,98.30
2023-05-06T02:53:19.338Z,98.30
2023-05-06T02:55:46.476Z,98.30
2023-05-06T02:58:13.770Z,98.30
2023-05-06T03:00:40.512Z,98.30
2023-05-06T03:03:07.228Z,98.30
2023-05-06T03:05:33.937Z,98.30
2023-05-06T03:08:00.735Z,98.30
2023-05-06T03:10:27.375Z,98.30
2023-05-06T03:12:55.901Z,98.30
2023-05-06T03:15:22.721Z,98.30
2023-05-06T03:17:49.665Z,98.30
2023-05-06T03:20:16.709Z,98.30
2023-05-06T03:22:50.142Z,98.30
2023-05-06T03:25:18.120Z,98.30
2023-05-06T03:27:45.139Z,98.30
2023-05-06T03:30:17.870Z,98.30
2023-05-06T03:32:45.682Z,98.30
2023-05-06T03:35:16.442Z,98.30
2023-05-06T03:37:46.920Z,98.30
2023-05-06T03:40:13.908Z,98.30
2023-05-06T03:42:40.696Z,98.30
2023-05-06T03:45:08.864Z,98.30
2023-05-06T03:47:36.728Z,98.30
2023-05-06T03:50:04.963Z,98.30
2023-05-06T03:52:33.764Z,98.30
2023-05-06T03:55:01.058Z,98.30
2023-05-06T03:57:29.800Z,98.30
2023-05-06T03:59:57.050Z,98.30
2023-05-06T04:02:25.221Z,98.30
2023-05-06T04:04:52.023Z,98.30
2023-05-06T04:07:18.691Z,98.30
2023-05-06T04:09:45.315Z,98.30
2023-05-06T04:12:11.979Z,98.30
2023-05-06T04:14:39.759Z,98.30
2023-05-06T04:17:07.706Z,98.30
2023-05-06T04:19:34.598Z,98.30
2023-05-06T04:22:01.332Z,98.30
2023-05-06T04:24:31.229Z,98.30
2023-05-06T04:26:58.741Z,98.30
2023-05-06T04:29:26.955Z,98.30
2023-05-06T04:31:58.291Z,98.30
2023-05-06T04:34:27.658Z,98.30
2023-05-06T04:36:55.463Z,98.30
2023-05-06T04:39:48.909Z,98.30
2023-05-06T04:42:16.185Z,98.30
2023-05-06T04:44:50.116Z,98.30
2023-05-06T04:47:20.439Z,98.30
2023-05-06T04:49:50.479Z,98.30
2023-05-06T04:52:17.841Z,98.30
2023-05-06T04:54:45.576Z,98.30
2023-05-06T04:57:13.124Z,98.30
2023-05-06T04:59:42.550Z,98.30
2023-05-06T05:02:09.257Z,98.30
2023-05-06T05:04:36.482Z,98.30
2023-05-06T05:07:03.159Z,98.30
2023-05-06T05:09:31.410Z,98.30
2023-05-06T05:11:58.300Z,98.30
2023-05-06T05:14:24.953Z,98.30
2023-05-06T05:16:51.986Z,98.30
2023-05-06T05:19:18.673Z,98.30
2023-05-06T05:21:45.572Z,98.30
2023-05-06T05:24:13.863Z,98.30
2023-05-06T05:26:40.506Z,98.30
2023-05-06T05:29:07.292Z,98.30
2023-05-06T05:31:35.238Z,98.30
2023-05-06T05:34:02.252Z,98.30
2023-05-06T05:36:29.035Z,98.30
2023-05-06T05:38:58.117Z,98.30
2023-05-06T05:41:26.787Z,98.30
2023-05-06T05:43:54.749Z,98.30
2023-05-06T05:46:21.793Z,98.30
2023-05-06T05:48:50.454Z,98.30
2023-05-06T05:51:18.598Z,98.30
2023-05-06T05:53:45.646Z,98.30
2023-05-06T05:56:13.332Z,98.30
2023-05-06T05:58:40.867Z,98.30
2023-05-06T06:01:07.942Z,98.30
2023-05-06T06:03:35.716Z,98.30
2023-05-06T06:06:02.552Z,98.30
2023-05-06T06:08:29.882Z,98.30
2023-05-06T06:10:58.182Z,98.30
2023-05-06T06:13:31.430Z,98.30
2023-05-06T06:15:59.367Z,98.30
2023-05-06T06:18:26.215Z,98.30
2023-05-06T06:20:53.612Z,98.30
2023-05-06T06:23:21.644Z,98.30
2023-05-06T06:25:48.361Z,98.30
2023-05-06T06:28:15.792Z,98.30
2023-05-06T06:30:43.702Z,98.30
2023-05-06T06:33:10.453Z,98.30
2023-05-06T06:35:37.232Z,98.30
2023-05-06T06:38:04.176Z,98.30
2023-05-06T06:40:30.888Z,98.30
2023-05-06T06:42:57.552Z,98.30
2023-05-06T06:45:50.063Z,98.30
2023-05-06T06:48:17.263Z,98.30
2023-05-06T06:50:47.523Z,98.30
2023-05-06T06:53:17.494Z,98.30
2023-05-06T06:55:45.140Z,98.30
2023-05-06T06:58:12.107Z,98.30
2023-05-06T07:00:40.923Z,98.30
2023-05-06T07:03:07.817Z,98.30
2023-05-06T07:05:37.653Z,98.30
2023-05-06T07:08:04.364Z,98.30
2023-05-06T07:10:31.053Z,98.30
2023-05-06T07:12:58.364Z,98.30
2023-05-06T07:15:25.663Z,98.30
2023-05-06T07:17:55.732Z,98.30
2023-05-06T07:20:22.436Z,98.30
2023-05-06T07:22:49.486Z,98.30
2023-05-06T07:25:16.217Z,98.30
2023-05-06T07:27:42.880Z,98.30
2023-05-06T07:30:09.974Z,98.10
2023-05-06T07:32:37.007Z,97.90
2023-05-06T07:35:03.893Z,97.90
2023-05-06T07:37:30.535Z,97.40
2023-05-06T07:39:57.965Z,97.50
2023-05-06T07:42:24.649Z,97.80
2023-05-06T07:44:51.435Z,97.50
2023-05-06T07:47:28.104Z,97.60
2023-05-06T07:49:55.442Z,97.20
2023-05-06T07:52:26.085Z,96.90
2023-05-06T07:54:53.233Z,96.40
2023-05-06T07:57:19.969Z,96.70
2023-05-06T07:59:51.677Z,96.80
2023-05-06T08:02:18.674Z,97.40
2023-05-06T08:04:46.259Z,97.20
2023-05-06T08:07:12.962Z,96.70
2023-05-06T08:09:39.670Z,96.80
2023-05-06T08:12:06.742Z,96.70
2023-05-06T08:14:33.456Z,96.70
2023-05-06T08:17:00.555Z,97.00
2023-05-06T08:19:27.264Z,98.10
2023-05-06T08:21:54.236Z,98.00
2023-05-06T08:24:20.992Z,98.30
2023-05-06T08:26:48.032Z,98.30
2023-05-06T08:29:14.715Z,97.80
2023-05-06T08:31:43.381Z,97.70
2023-05-06T08:34:10.095Z,97.40
2023-05-06T08:36:36.823Z,96.80
2023-05-06T08:39:03.584Z,95.80
2023-05-06T08:41:31.060Z,94.90
2023-05-06T08:44:00.716Z,95.60
2023-05-06T08:46:30.692Z,95.30
2023-05-06T08:48:58.819Z,95.60
2023-05-06T08:51:29.961Z,96.00
2023-05-06T08:54:00.180Z,95.20
2023-05-06T08:56:31.034Z,94.20
2023-05-06T08:58:58.570Z,93.40
2023-05-06T09:01:27.778Z,93.90
2023-05-06T09:03:56.748Z,93.30
2023-05-06T09:06:24.188Z,93.30
2023-05-06T09:08:51.171Z,93.10
2023-05-06T09:11:22.276Z,93.30
2023-05-06T09:13:49.129Z,93.20
2023-05-06T09:16:31.134Z,91.50
2023-05-06T09:18:59.181Z,91.80
2023-05-06T09:21:35.649Z,92.30
2023-05-06T09:24:04.318Z,91.90
2023-05-06T09:26:31.866Z,91.60
2023-05-06T09:28:59.361Z,91.30
2023-05-06T09:31:27.221Z,90.50
2023-05-06T09:33:56.341Z,90.00
2023-05-06T09:36:24.273Z,89.70
2023-05-06T09:38:51.096Z,90.20
2023-05-06T09:41:20.947Z,89.80
2023-05-06T09:43:49.181Z,89.80
2023-05-06T09:46:21.107Z,90.30
2023-05-06T09:48:51.412Z,88.70
2023-05-06T09:51:18.518Z,88.90
2023-05-06T09:53:45.538Z,89.20
2023-05-06T09:56:14.013Z,88.80
2023-05-06T09:58:41.907Z,87.60
2023-05-06T10:01:09.860Z,87.60
2023-05-06T10:03:37.345Z,86.40
2023-05-06T10:06:06.186Z,86.80
2023-05-06T10:08:37.198Z,86.90
2023-05-06T10:11:06.138Z,86.20
2023-05-06T10:13:33.731Z,85.90
2023-05-06T10:16:02.573Z,86.30
2023-05-06T10:18:30.707Z,86.40
2023-05-06T10:21:00.167Z,84.80
2023-05-06T10:23:49.640Z,85.20
2023-05-06T10:26:19.651Z,84.60
2023-05-06T10:28:49.606Z,84.10
2023-05-06T10:31:16.643Z,85.00
2023-05-06T10:33:48.279Z,83.90
2023-05-06T10:36:27.710Z,83.40
2023-05-06T10:39:00.401Z,83.20
2023-05-06T10:41:28.437Z,82.70
2023-05-06T10:43:59.924Z,82.40
2023-05-06T10:46:30.649Z,82.20
2023-05-06T10:49:06.575Z,81.00
2023-05-06T10:51:34.549Z,81.70
2023-05-06T10:54:09.060Z,82.00
2023-05-06T10:56:58.905Z,82.30
2023-05-06T10:59:29.813Z,82.90
2023-05-06T11:02:08.856Z,82.00
2023-05-06T11:04:37.406Z,82.40
2023-05-06T11:07:15.420Z,82.60
2023-05-06T11:09:56.420Z,82.10
2023-05-06T11:12:43.126Z,81.20
2023-05-06T11:15:26.868Z,79.80
2023-05-06T11:17:55.518Z,79.40
2023-05-06T11:20:26.604Z,80.00
2023-05-06T11:22:54.843Z,80.60
2023-05-06T11:25:42.594Z,80.10
2023-05-06T11:28:12.346Z,81.20
2023-05-06T11:30:43.882Z,80.80
2023-05-06T11:33:18.522Z,80.30
2023-05-06T11:35:45.300Z,80.80
2023-05-06T11:38:12.377Z,79.20
2023-05-06T11:40:41.820Z,79.30
2023-05-06T11:43:12.606Z,79.10
2023-05-06T11:45:48.682Z,78.80
2023-05-06T11:48:16.951Z,79.10
2023-05-06T11:50:52.067Z,78.60
2023-05-06T11:53:22.590Z,79.00
2023-05-06T11:55:52.862Z,78.30
2023-05-06T11:58:38.218Z,78.70
2023-05-06T12:01:09.816Z,79.70
2023-05-06T12:03:39.915Z,77.00
2023-05-06T12:06:16.640Z,76.50
2023-05-06T12:08:49.790Z,76.80
2023-05-06T12:11:16.633Z,76.90
2023-05-06T12:13:44.535Z,77.60
2023-05-06T12:16:20.773Z,76.40
2023-05-06T12:18:48.243Z,78.20
2023-05-06T12:21:27.904Z,78.20
2023-05-06T12:24:05.519Z,76.50
2023-05-06T12:26:57.229Z,77.60
2023-05-06T12:29:28.349Z,77.40
2023-05-06T12:32:11.673Z,76.40
2023-05-06T12:34:41.705Z,76.00
2023-05-06T12:37:17.259Z,76.80
2023-05-06T12:39:44.100Z,76.40
2023-05-06T12:42:20.482Z,76.80
2023-05-06T12:44:47.425Z,76.80
2023-05-06T12:47:20.680Z,77.00
2023-05-06T12:49:58.187Z,75.80
2023-05-06T12:52:28.745Z,74.10
2023-05-06T12:54:56.192Z,74.30
2023-05-06T12:57:22.988Z,74.60
2023-05-06T12:59:50.283Z,74.70
2023-05-06T13:02:17.152Z,74.40
2023-05-06T13:04:45.209Z,74.70
2023-05-06T13:07:12.015Z,74.10
2023-05-06T13:09:38.669Z,74.20
2023-05-06T13:12:07.102Z,74.30
2023-05-06T13:14:33.829Z,73.10
2023-05-06T13:17:01.527Z,73.50
2023-05-06T13:19:32.955Z,73.80
2023-05-06T13:22:03.220Z,73.90
2023-05-06T13:24:33.297Z,73.90
2023-05-06T13:27:01.464Z,74.10
2023-05-06T13:29:29.302Z,72.90
2023-05-06T13:31:56.337Z,72.40
2023-05-06T13:34:23.083Z,73.00
2023-05-06T13:36:50.708Z,73.80
2023-05-06T13:39:17.349Z,73.20
2023-05-06T13:41:58.671Z,72.90
2023-05-06T13:44:25.588Z,74.00
2023-05-06T13:46:52.509Z,73.30
2023-05-06T13:49:19.421Z,73.20
2023-05-06T13:51:46.070Z,74.80
2023-05-06T13:54:13.052Z,75.80
2023-05-06T13:56:42.685Z,76.40
2023-05-06T13:59:11.808Z,76.00
2023-05-06T14:01:39.316Z,76.70
2023-05-06T14:04:09.383Z,76.30
2023-05-06T14:06:36.312Z,76.80
2023-05-06T14:09:04.476Z,76.90
2023-05-06T14:11:31.160Z,77.60
2023-05-06T14:14:01.646Z,77.80
2023-05-06T14:16:28.453Z,77.70
2023-05-06T14:18:55.122Z,77.10
2023-05-06T14:21:21.880Z,77.10
2023-05-06T14:23:48.543Z,76.90
2023-05-06T14:26:15.238Z,76.70
2023-05-06T14:28:42.196Z,76.10
2023-05-06T14:31:12.001Z,75.60
2023-05-06T14:33:38.842Z,76.20
2023-05-06T14:36:09.054Z,75.70
2023-05-06T14:38:35.895Z,74.80
2023-05-06T14:41:02.515Z,75.10
2023-05-06T14:43:29.929Z,74.70
2023-05-06T14:45:56.832Z,75.10
2023-05-06T14:48:25.239Z,75.10
2023-05-06T14:50:51.925Z,74.70
2023-05-06T14:53:18.655Z,74.50
2023-05-06T14:55:45.450Z,74.40
2023-05-06T14:58:12.272Z,75.10
2023-05-06T15:00:38.992Z,74.70
2023-05-06T15:03:05.833Z,74.50
2023-05-06T15:05:32.591Z,73.90
2023-05-06T15:07:59.308Z,73.60
2023-05-06T15:10:29.166Z,74.10
2023-05-06T15:12:58.482Z,74.00
2023-05-06T15:15:28.514Z,74.30
2023-05-06T15:18:02.261Z,74.60
2023-05-06T15:20:30.891Z,72.70
2023-05-06T15:23:02.329Z,72.70
2023-05-06T15:25:35.685Z,73.20
2023-05-06T15:28:07.394Z,73.00
2023-05-06T15:30:40.063Z,73.40
2023-05-06T15:33:07.382Z,72.90
2023-05-06T15:35:43.108Z,72.50
2023-05-06T15:38:09.970Z,72.40
2023-05-06T15:40:43.344Z,72.40
2023-05-06T15:43:22.909Z,73.10
2023-05-06T15:45:53.698Z,73.40
2023-05-06T15:48:24.185Z,73.40
2023-05-06T15:50:51.326Z,73.70
2023-05-06T15:53:19.271Z,73.80
2023-05-06T15:55:56.200Z,74.20
2023-05-06T15:58:45.015Z,73.80
2023-05-06T16:01:14.709Z,74.40
2023-05-06T16:03:44.815Z,74.60
2023-05-06T16:06:12.065Z,74.50
2023-05-06T16:08:42.486Z,73.90
2023-05-06T16:11:12.669Z,74.40
2023-05-06T16:13:43.492Z,75.00
2023-05-06T16:16:12.730Z,74.70
2023-05-06T16:18:41.160Z,74.60
2023-05-06T16:21:11.404Z,74.60
2023-05-06T16:23:41.460Z,74.10
2023-05-06T16:26:13.509Z,74.00
2023-05-06T16:28:41.753Z,74.10
2023-05-06T16:31:08.834Z,74.50
2023-05-06T16:33:35.710Z,74.20
2023-05-06T16:36:03.422Z,74.20
2023-05-06T16:38:30.139Z,74.50
2023-05-06T16:40:56.801Z,74.40
2023-05-06T16:43:23.568Z,75.10
2023-05-06T16:45:50.249Z,74.50
2023-05-06T16:48:17.109Z,75.10
2023-05-06T16:50:43.881Z,75.20
2023-05-06T16:53:10.827Z,75.90
2023-05-06T16:55:37.729Z,76.20
2023-05-06T16:58:04.629Z,75.80
2023-05-06T17:00:32.000Z,76.00
2023-05-06T17:02:58.969Z,75.90
2023-05-06T17:05:27.952Z,76.10
2023-05-06T17:07:54.653Z,77.10
2023-05-06T17:10:21.998Z,76.90
2023-05-06T17:12:48.773Z,77.60
2023-05-06T17:15:16.001Z,77.10
2023-05-06T17:17:42.739Z,76.90
2023-05-06T17:20:09.936Z,76.90
2023-05-06T17:22:37.331Z,77.20
2023-05-06T17:25:04.382Z,77.00
2023-05-06T17:27:31.198Z,76.50
2023-05-06T17:30:00.631Z,76.90
2023-05-06T17:32:27.393Z,77.70
2023-05-06T17:34:54.280Z,78.20
2023-05-06T17:37:20.991Z,78.20
2023-05-06T17:39:47.739Z,78.40
2023-05-06T17:42:14.424Z,78.70
2023-05-06T17:44:42.731Z,79.50
2023-05-06T17:47:09.987Z,80.00
2023-05-06T17:49:36.930Z,80.20
2023-05-06T17:52:03.727Z,80.20
2023-05-06T17:54:34.693Z,80.30
2023-05-06T17:57:03.441Z,80.60
2023-05-06T17:59:30.386Z,81.20
2023-05-06T18:01:57.124Z,81.70
2023-05-06T18:04:24.070Z,82.60
2023-05-06T18:06:50.838Z,82.90
2023-05-06T18:09:17.626Z,83.20
2023-05-06T18:11:44.361Z,83.50
2023-05-06T18:14:11.923Z,83.90
2023-05-06T18:16:38.834Z,84.40
2023-05-06T18:19:05.679Z,84.70
2023-05-06T18:21:33.869Z,84.80
2023-05-06T18:24:10.274Z,85.50
2023-05-06T18:26:45.494Z,85.50
2023-05-06T18:29:12.919Z,85.40
2023-05-06T18:31:40.047Z,85.90
2023-05-06T18:34:06.729Z,85.90
2023-05-06T18:36:35.034Z,86.00
2023-05-06T18:39:02.444Z,86.30
2023-05-06T18:41:29.076Z,86.60
2023-05-06T18:43:59.325Z,86.70
2023-05-06T18:46:27.599Z,86.90
2023-05-06T18:48:55.931Z,86.90
2023-05-06T18:51:23.145Z,87.80
2023-05-06T18:53:49.781Z,88.90
2023-05-06T18:56:16.870Z,89.70
2023-05-06T18:58:43.598Z,90.00
2023-05-06T19:01:11.156Z,89.70
2023-05-06T19:03:38.287Z,89.80
2023-05-06T19:06:10.519Z,90.20
2023-05-06T19:08:43.581Z,90.70
2023-05-06T19:11:18.144Z,90.40
2023-05-06T19:13:48.057Z,89.90
2023-05-06T19:16:15.229Z,89.50
2023-05-06T19:18:41.988Z,89.70
2023-05-06T19:21:12.377Z,89.70
2023-05-06T19:23:39.440Z,89.90
2023-05-06T19:26:06.762Z,90.20
2023-05-06T19:28:34.188Z,89.60
2023-05-06T19:31:01.790Z,89.40
2023-05-06T19:33:28.595Z,89.60
2023-05-06T19:35:55.236Z,89.80
2023-05-06T19:38:21.945Z,90.00
2023-05-06T19:40:48.641Z,90.00
2023-05-06T19:43:15.329Z,89.90
2023-05-06T19:45:42.077Z,90.10
2023-05-06T19:48:08.869Z,90.70
2023-05-06T19:50:44.844Z,90.70
2023-05-06T19:53:11.688Z,90.90
2023-05-06T19:55:38.489Z,91.20
2023-05-06T19:58:05.562Z,91.40
2023-05-06T20:00:35.278Z,91.40
2023-05-06T20:03:02.059Z,91.70
2023-05-06T20:05:32.167Z,91.60
2023-05-06T20:08:02.173Z,91.80
2023-05-06T20:10:29.449Z,91.10
2023-05-06T20:12:57.791Z,91.30
2023-05-06T20:15:25.169Z,91.10
2023-05-06T20:17:51.856Z,90.80
2023-05-06T20:20:19.343Z,91.30
2023-05-06T20:22:46.033Z,91.40
2023-05-06T20:25:16.001Z,91.30
2023-05-06T20:27:46.281Z,91.10
2023-05-06T20:30:13.191Z,91.60
2023-05-06T20:32:40.673Z,91.70
2023-05-06T20:35:08.221Z,91.90
2023-05-06T20:37:36.099Z,92.00
2023-05-06T20:40:04.540Z,92.40
2023-05-06T20:42:33.430Z,92.70
2023-05-06T20:45:03.232Z,92.70
2023-05-06T20:47:30.459Z,92.80
2023-05-06T20:49:58.099Z,93.30
2023-05-06T20:52:26.249Z,93.50
2023-05-06T20:54:52.947Z,93.70
2023-05-06T20:57:21.896Z,93.50
2023-05-06T20:59:51.005Z,93.30
2023-05-06T21:02:17.762Z,93.70
2023-05-06T21:04:44.442Z,92.90
2023-05-06T21:07:11.615Z,92.60
2023-05-06T21:09:38.431Z,92.60
2023-05-06T21:12:05.355Z,92.90
2023-05-06T21:14:33.845Z,93.00
2023-05-06T21:17:01.088Z,93.00
2023-05-06T21:19:27.957Z,93.50
2023-05-06T21:21:55.104Z,93.40
2023-05-06T21:24:22.009Z,93.40
2023-05-06T21:26:49.006Z,93.60
2023-05-06T21:29:15.916Z,93.70
2023-05-06T21:31:42.663Z,94.10
2023-05-06T21:34:33.717Z,94.10
2023-05-06T21:37:05.397Z,94.60
2023-05-06T21:39:38.122Z,94.90
2023-05-06T21:42:07.972Z,94.90
2023-05-06T21:44:38.281Z,94.80
2023-05-06T21:47:05.475Z,94.40
2023-05-06T21:49:32.275Z,94.40
2023-05-06T21:51:59.079Z,94.40
2023-05-06T21:54:26.655Z,94.40
2023-05-06T21:56:54.017Z,94.40
2023-05-06T21:59:21.618Z,94.40
2023-05-06T22:01:48.582Z,94.30
2023-05-06T22:04:16.576Z,94.40
2023-05-06T22:06:43.390Z,95.00
2023-05-06T22:09:11.104Z,95.30
2023-05-06T22:11:40.848Z,95.10
2023-05-06T22:14:11.767Z,95.40
2023-05-06T22:16:39.459Z,95.20
2023-05-06T22:19:07.141Z,94.90
2023-05-06T22:21:34.846Z,95.00
2023-05-06T22:24:01.821Z,94.80
2023-05-06T22:26:28.555Z,94.80
2023-05-06T22:29:02.084Z,94.70
2023-05-06T22:31:28.905Z,95.00
2023-05-06T22:33:57.828Z,95.10
2023-05-06T22:36:28.812Z,95.30
2023-05-06T22:38:59.771Z,95.20
2023-05-06T22:41:35.759Z,95.50
2023-05-06T22:44:06.436Z,95.60
2023-05-06T22:46:33.601Z,96.00
2023-05-06T22:49:00.353Z,96.30
2023-05-06T22:51:28.084Z,96.20
2023-05-06T22:53:54.726Z,96.00
2023-05-06T22:56:21.833Z,96.20
2023-05-06T22:58:48.929Z,96.00
2023-05-06T23:01:18.120Z,96.20
2023-05-06T23:03:48.406Z,96.50
2023-05-06T23:06:16.337Z,97.00
2023-05-06T23:08:43.002Z,96.90
2023-05-06T23:11:09.987Z,96.70
2023-05-06T23:13:37.655Z,96.60
2023-05-06T23:16:05.108Z,96.40
2023-05-06T23:18:32.179Z,96.30
2023-05-06T23:20:58.937Z,96.90
2023-05-06T23:23:25.714Z,96.90
2023-05-06T23:25:53.292Z,97.00
2023-05-06T23:28:19.982Z,96.50
2023-05-06T23:30:46.676Z,96.60
2023-05-06T23:33:13.537Z,96.90
2023-05-06T23:35:40.787Z,97.50
2023-05-06T23:38:07.515Z,97.60
2023-05-06T23:40:34.306Z,97.50
2023-05-06T23:43:00.938Z,97.50
2023-05-06T23:45:27.812Z,97.30
2023-05-06T23:47:54.777Z,97.40
2023-05-06T23:50:21.435Z,97.10
2023-05-06T23:52:48.167Z,97.00
2023-05-06T23:55:15.175Z,97.10
2023-05-06T23:57:41.925Z,97.30
